createdAt,value
2022-11-24T00:02:00.969Z,100344.78
2022-11-24T00:04:29.834Z,100337.59
2022-11-24T00:06:58.509Z,100350.94
2022-11-24T00:09:28.309Z,100330.06
2022-11-24T00:11:58.343Z,100351.44
2022-11-24T00:14:27.206Z,100364.84
2022-11-24T00:16:56.487Z,100360.78
2022-11-24T00:19:25.172Z,100367.97
2022-11-24T00:21:53.810Z,100368.22
2022-11-24T00:24:22.468Z,100346.97
2022-11-24T00:26:51.142Z,100359.75
2022-11-24T00:29:21.282Z,100342.19
2022-11-24T00:31:50.336Z,100337.78
2022-11-24T00:34:19.344Z,100302.28
2022-11-24T00:36:47.968Z,100324.28
2022-11-24T00:39:17.427Z,100342.06
2022-11-24T00:41:46.794Z,100337.91
2022-11-24T00:44:15.557Z,100332.41
2022-11-24T00:46:45.793Z,100301.13
2022-11-24T00:49:14.648Z,100315.44
2022-11-24T00:51:43.325Z,100312.34
2022-11-24T00:54:11.945Z,100300.63
2022-11-24T00:56:40.656Z,100292.84
2022-11-24T00:59:09.501Z,100276.53
2022-11-24T01:01:39.156Z,100258.41
2022-11-24T01:04:09.352Z,100257.56
2022-11-24T01:06:38.345Z,100265.81
2022-11-24T01:09:06.946Z,100273.31
2022-11-24T01:11:50.968Z,100283.94
2022-11-24T01:14:21.086Z,100277.84
2022-11-24T01:16:49.912Z,100207.78
2022-11-24T01:19:20.354Z,100236.03
2022-11-24T01:21:49.355Z,100255.28
2022-11-24T01:24:18.478Z,100239.06
2022-11-24T01:26:47.250Z,100262.44
2022-11-24T01:29:15.892Z,100266.25
2022-11-24T01:31:44.526Z,100240.94
2022-11-24T01:34:13.576Z,100241.63
2022-11-24T01:36:43.675Z,100235.69
2022-11-24T01:39:12.469Z,100238.81
2022-11-24T01:41:41.411Z,100221.38
2022-11-24T01:44:24.641Z,100223.84
2022-11-24T01:46:56.958Z,100225.06
2022-11-24T01:49:29.165Z,100226.75
2022-11-24T01:52:05.507Z,100230.81
2022-11-24T01:54:37.940Z,100210.09
2022-11-24T01:57:11.685Z,100214.38
2022-11-24T01:59:40.494Z,100202.91
2022-11-24T02:02:10.125Z,100184.78
2022-11-24T02:04:39.780Z,100176.22
2022-11-24T02:07:10.304Z,100150.66
2022-11-24T02:09:44.561Z,100165.28
2022-11-24T02:12:13.243Z,100148.00
2022-11-24T02:14:44.766Z,100139.84
2022-11-24T02:17:13.527Z,100121.81
2022-11-24T02:19:50.445Z,100130.31
2022-11-24T02:22:27.948Z,100126.22
2022-11-24T02:25:06.562Z,100130.97
2022-11-24T02:27:36.990Z,100131.44
2022-11-24T02:30:06.420Z,100131.69
2022-11-24T02:32:35.460Z,100138.16
2022-11-24T02:35:06.532Z,100144.56
2022-11-24T02:37:35.133Z,100119.53
2022-11-24T02:40:03.909Z,100143.41
2022-11-24T02:42:39.533Z,100143.66
2022-11-24T02:45:11.591Z,100134.25
2022-11-24T02:47:40.346Z,100131.72
2022-11-24T02:50:09.436Z,100131.53
2022-11-24T02:52:38.069Z,100130.81
2022-11-24T02:55:07.203Z,100133.56
2022-11-24T02:57:37.264Z,100118.69
2022-11-24T03:00:06.441Z,100122.97
2022-11-24T03:02:35.234Z,100139.66
2022-11-24T03:05:04.073Z,100128.91
2022-11-24T03:07:32.734Z,100132.47
2022-11-24T03:10:01.376Z,100139.28
2022-11-24T03:12:30.004Z,100129.50
2022-11-24T03:15:00.107Z,100125.28
2022-11-24T03:17:28.722Z,100128.41
2022-11-24T03:20:02.957Z,100138.00
2022-11-24T03:22:33.138Z,100133.06
2022-11-24T03:25:01.805Z,100116.69
2022-11-24T03:27:31.719Z,100104.16
2022-11-24T03:30:01.779Z,100105.31
2022-11-24T03:32:30.422Z,100097.13
2022-11-24T03:34:59.022Z,100096.47
2022-11-24T03:37:28.307Z,100075.44
2022-11-24T03:39:56.930Z,100098.28
2022-11-24T03:42:31.088Z,100078.63
2022-11-24T03:45:04.223Z,100079.66
2022-11-24T03:47:51.098Z,100060.22
2022-11-24T03:50:19.834Z,100064.44
2022-11-24T03:52:48.524Z,100062.72
2022-11-24T03:55:17.599Z,100059.38
2022-11-24T03:57:46.225Z,100053.56
2022-11-24T04:00:15.724Z,100036.03
2022-11-24T04:02:44.401Z,100032.56
2022-11-24T04:05:14.475Z,100029.91
2022-11-24T04:07:43.280Z,100020.41
2022-11-24T04:10:12.080Z,100032.53
2022-11-24T04:12:45.565Z,100030.19
2022-11-24T04:15:15.857Z,100002.81
2022-11-24T04:17:44.409Z,100011.69
2022-11-24T04:20:15.129Z,100010.47
2022-11-24T04:22:44.411Z,99994.94
2022-11-24T04:25:13.007Z,99978.34
2022-11-24T04:27:41.471Z,99966.41
2022-11-24T04:30:10.954Z,100012.47
2022-11-24T04:32:39.549Z,100010.38
2022-11-24T04:35:08.781Z,100008.97
2022-11-24T04:37:39.011Z,100014.59
2022-11-24T04:40:09.572Z,99992.44
2022-11-24T04:42:38.090Z,100006.53
2022-11-24T04:45:08.153Z,100009.63
2022-11-24T04:47:36.715Z,99891.38
2022-11-24T04:50:07.811Z,99976.91
2022-11-24T04:52:36.335Z,99995.22
2022-11-24T04:55:06.736Z,99991.59
2022-11-24T04:57:35.881Z,99994.25
2022-11-24T05:00:05.107Z,99988.59
2022-11-24T05:05:37.302Z,99969.44
2022-11-24T05:08:06.293Z,99966.41
2022-11-24T05:10:40.205Z,99961.00
2022-11-24T05:13:12.514Z,99934.66
2022-11-24T05:15:42.733Z,99948.38
2022-11-24T05:18:15.404Z,99951.75
2022-11-24T05:20:45.884Z,99935.09
2022-11-24T05:23:14.530Z,99921.53
2022-11-24T05:25:47.604Z,99908.22
2022-11-24T05:28:16.450Z,99924.41
2022-11-24T05:30:45.609Z,99929.00
2022-11-24T05:33:19.063Z,99913.47
2022-11-24T05:35:49.165Z,99920.00
2022-11-24T05:38:18.569Z,99920.41
2022-11-24T05:40:48.366Z,99941.19
2022-11-24T05:43:18.142Z,99931.34
2022-11-24T05:45:46.846Z,99946.03
2022-11-24T05:48:16.598Z,99954.38
2022-11-24T05:50:45.616Z,99938.13
2022-11-24T05:53:14.950Z,99954.50
2022-11-24T05:55:44.151Z,99941.22
2022-11-24T05:58:13.968Z,99929.28
2022-11-24T06:00:42.584Z,99942.59
2022-11-24T06:03:12.314Z,99937.63
2022-11-24T06:05:40.939Z,99928.44
2022-11-24T06:08:09.380Z,99930.13
2022-11-24T06:10:37.789Z,99944.78
2022-11-24T06:13:07.460Z,99945.06
2022-11-24T06:15:37.882Z,99943.69
2022-11-24T06:18:06.863Z,99932.75
2022-11-24T06:20:35.291Z,99939.25
2022-11-24T06:23:03.788Z,99934.81
2022-11-24T06:25:32.593Z,99928.31
2022-11-24T06:28:04.728Z,99905.19
2022-11-24T06:30:33.250Z,99915.00
2022-11-24T06:33:03.209Z,99917.91
2022-11-24T06:35:31.668Z,99922.34
2022-11-24T06:38:00.096Z,99934.25
2022-11-24T06:40:28.523Z,99918.19
2022-11-24T06:42:57.167Z,99931.75
2022-11-24T06:45:25.935Z,99944.75
2022-11-24T06:47:55.356Z,99944.22
2022-11-24T06:50:29.214Z,99939.19
2022-11-24T06:53:01.067Z,99955.28
2022-11-24T06:55:29.493Z,99951.09
2022-11-24T06:57:57.945Z,99965.66
2022-11-24T07:00:29.434Z,99962.72
2022-11-24T07:02:58.368Z,99952.78
2022-11-24T07:05:28.753Z,99955.78
2022-11-24T07:07:57.308Z,99969.38
2022-11-24T07:10:25.749Z,99951.22
2022-11-24T07:12:54.308Z,99959.66
2022-11-24T07:15:23.089Z,99964.19
2022-11-24T07:17:51.575Z,99966.28
2022-11-24T07:20:20.224Z,99948.25
2022-11-24T07:22:50.098Z,99954.63
2022-11-24T07:25:18.569Z,99943.41
2022-11-24T07:27:47.017Z,99956.81
2022-11-24T07:30:15.752Z,99957.66
2022-11-24T07:32:44.173Z,99952.91
2022-11-24T07:35:12.729Z,99967.59
2022-11-24T07:37:41.158Z,99953.16
2022-11-24T07:40:12.913Z,99958.34
2022-11-24T07:42:41.363Z,99958.78
2022-11-24T07:45:10.625Z,99951.78
2022-11-24T07:47:41.123Z,99937.72
2022-11-24T07:50:11.426Z,99973.19
2022-11-24T07:52:40.250Z,99983.31
2022-11-24T07:55:11.497Z,99980.75
2022-11-24T07:57:41.143Z,99988.25
2022-11-24T08:00:11.093Z,99986.81
2022-11-24T08:02:39.913Z,99979.75
2022-11-24T08:05:09.284Z,99994.25
2022-11-24T08:07:38.096Z,99963.91
2022-11-24T08:10:07.796Z,99996.31
2022-11-24T08:12:37.925Z,99998.50
2022-11-24T08:15:10.873Z,99985.72
2022-11-24T08:17:39.863Z,99986.41
2022-11-24T08:20:10.066Z,99993.34
2022-11-24T08:22:38.559Z,99996.00
2022-11-24T08:25:08.036Z,99991.69
2022-11-24T08:27:40.200Z,99989.88
2022-11-24T08:30:10.304Z,99982.19
2022-11-24T08:32:38.781Z,99984.00
2022-11-24T08:35:14.034Z,99999.84
2022-11-24T08:37:42.902Z,99987.34
2022-11-24T08:40:12.854Z,99989.56
2022-11-24T08:42:42.692Z,100034.56
2022-11-24T08:45:20.420Z,100042.31
2022-11-24T08:47:54.153Z,100035.50
2022-11-24T08:50:23.022Z,99997.38
2022-11-24T08:52:53.354Z,99945.00
2022-11-24T08:55:22.488Z,99931.09
2022-11-24T08:57:52.337Z,99917.53
2022-11-24T09:00:23.507Z,99915.56
2022-11-24T09:02:56.666Z,99925.13
2022-11-24T09:05:50.638Z,99942.16
2022-11-24T09:08:14.193Z,99949.38
2022-11-24T09:10:43.244Z,99965.50
2022-11-24T09:13:13.173Z,99962.41
2022-11-24T09:15:41.881Z,99981.00
2022-11-24T09:18:10.294Z,99985.72
2022-11-24T09:20:38.806Z,99981.84
2022-11-24T09:23:07.302Z,100006.56
2022-11-24T09:25:35.929Z,100014.06
2022-11-24T09:28:04.668Z,100016.59
2022-11-24T09:30:34.503Z,100039.19
2022-11-24T09:33:02.944Z,100018.41
2022-11-24T09:35:31.340Z,100069.03
2022-11-24T09:37:59.782Z,100062.38
2022-11-24T09:40:28.408Z,100090.13
2022-11-24T09:43:01.871Z,100109.97
2022-11-24T09:48:40.682Z,100097.06
2022-11-24T09:51:12.731Z,100111.06
2022-11-24T09:53:45.821Z,100108.97
2022-11-24T09:56:22.292Z,100122.59
2022-11-24T09:58:52.440Z,100135.34
2022-11-24T10:01:25.953Z,100144.38
2022-11-24T10:03:56.982Z,100134.78
2022-11-24T10:06:32.051Z,100150.03
2022-11-24T10:09:34.339Z,100155.34
2022-11-24T10:12:17.552Z,100151.72
2022-11-24T10:15:18.968Z,100152.84
2022-11-24T10:18:03.809Z,100156.03
2022-11-24T10:20:50.972Z,100165.91
2022-11-24T10:23:39.464Z,100168.09
2022-11-24T10:26:13.995Z,100157.97
2022-11-24T10:28:50.252Z,100172.53
2022-11-24T10:31:25.029Z,100167.69
2022-11-24T10:33:54.910Z,100156.03
2022-11-24T10:36:33.405Z,100177.81
2022-11-24T10:39:07.390Z,100178.09
2022-11-24T10:41:44.276Z,100182.97
2022-11-24T10:44:15.622Z,100185.59
2022-11-24T10:46:44.700Z,100168.66
2022-11-24T10:49:20.083Z,100181.44
2022-11-24T10:51:59.565Z,100201.97
2022-11-24T10:54:28.402Z,100196.13
2022-11-24T10:56:57.358Z,100178.78
2022-11-24T10:59:38.211Z,100176.78
2022-11-24T11:02:37.180Z,100179.28
2022-11-24T11:05:42.403Z,100158.19
2022-11-24T11:08:19.929Z,100151.22
2022-11-24T11:10:50.670Z,100148.72
2022-11-24T11:13:24.595Z,100143.31
2022-11-24T11:15:53.932Z,100124.47
2022-11-24T11:18:23.295Z,100151.84
2022-11-24T11:20:55.589Z,100152.25
2022-11-24T11:23:28.717Z,100143.47
2022-11-24T11:26:20.156Z,100156.06
2022-11-24T11:31:15.535Z,100157.25
2022-11-24T11:34:51.645Z,100116.13
2022-11-24T11:37:23.015Z,100121.78
2022-11-24T11:39:53.074Z,100085.94
2022-11-24T11:43:00.144Z,100096.34
2022-11-24T11:45:18.301Z,100064.22
2022-11-24T11:47:51.681Z,100043.50
2022-11-24T11:50:27.367Z,100045.66
2022-11-24T11:53:11.533Z,100017.59
2022-11-24T11:55:50.244Z,100028.31
2022-11-24T11:58:49.315Z,100012.19
2022-11-24T12:01:31.218Z,100024.31
2022-11-24T12:04:14.754Z,100030.97
2022-11-24T12:07:05.867Z,100038.72
2022-11-24T12:09:50.568Z,100044.38
2022-11-24T12:12:45.813Z,100079.97
2022-11-24T12:15:23.921Z,100087.31
2022-11-24T12:17:57.332Z,100107.75
2022-11-24T12:20:41.726Z,100109.72
2022-11-24T12:23:21.322Z,100126.97
2022-11-24T12:25:56.707Z,100139.13
2022-11-24T12:28:38.189Z,100147.72
2022-11-24T12:31:08.411Z,100143.47
2022-11-24T12:34:06.488Z,100151.81
2022-11-24T12:36:50.832Z,100151.94
2022-11-24T12:39:28.986Z,100154.72
2022-11-24T12:42:10.374Z,100145.44
2022-11-24T12:44:55.316Z,100152.81
2022-11-24T12:47:32.109Z,100158.22
2022-11-24T12:50:09.816Z,100152.25
2022-11-24T12:52:42.834Z,100150.59
2022-11-24T12:55:18.266Z,100155.97
2022-11-24T12:57:55.943Z,100143.47
2022-11-24T13:00:30.906Z,100141.09
2022-11-24T13:03:20.697Z,100121.81
2022-11-24T13:05:58.840Z,100114.97
2022-11-24T13:08:29.288Z,100107.16
2022-11-24T13:11:49.036Z,100092.72
2022-11-24T13:14:22.462Z,100089.06
2022-11-24T13:19:45.012Z,100077.66
2022-11-24T13:22:18.182Z,100064.59
2022-11-24T13:24:46.760Z,100058.47
2022-11-24T13:27:29.725Z,100048.31
2022-11-24T13:29:59.572Z,100054.75
2022-11-24T13:33:01.744Z,100044.41
2022-11-24T13:35:31.003Z,100032.94
2022-11-24T13:37:59.468Z,100023.59
2022-11-24T13:40:59.651Z,100007.19
2022-11-24T13:43:32.840Z,100002.50
2022-11-24T13:46:03.881Z,100012.94
2022-11-24T13:49:00.317Z,100008.09
2022-11-24T13:51:28.754Z,100018.38
2022-11-24T13:54:00.978Z,100024.72
2022-11-24T13:56:31.829Z,100031.44
2022-11-24T13:59:03.689Z,100044.34
2022-11-24T14:01:40.971Z,100024.19
2022-11-24T14:04:30.534Z,100041.94
2022-11-24T14:07:07.981Z,100043.97
2022-11-24T14:09:42.174Z,100033.59
2022-11-24T14:12:17.288Z,100031.50
2022-11-24T14:14:47.678Z,100038.25
2022-11-24T14:17:20.740Z,100026.47
2022-11-24T14:19:51.237Z,100035.97
2022-11-24T14:22:23.010Z,100017.34
2022-11-24T14:24:56.568Z,100027.44
2022-11-24T14:27:31.345Z,100043.50
2022-11-24T14:30:01.848Z,100035.13
2022-11-24T14:32:33.468Z,100041.53
2022-11-24T14:35:02.140Z,100051.97
2022-11-24T14:37:30.651Z,100067.81
2022-11-24T14:39:59.114Z,100066.47
2022-11-24T14:42:28.619Z,100049.25
2022-11-24T14:44:59.423Z,100056.97
2022-11-24T14:47:32.474Z,100040.56
2022-11-24T14:50:15.130Z,100052.97
2022-11-24T14:52:46.984Z,100037.78
2022-11-24T14:55:29.515Z,100048.19
2022-11-24T14:57:58.434Z,100056.38
2022-11-24T15:00:30.391Z,100061.06
2022-11-24T15:03:16.144Z,100056.69
2022-11-24T15:05:58.497Z,100038.06
2022-11-24T15:08:29.304Z,100049.53
2022-11-24T15:11:00.490Z,100037.22
2022-11-24T15:13:30.459Z,100027.31
2022-11-24T15:16:03.663Z,100041.13
2022-11-24T15:18:38.749Z,100041.66
2022-11-24T15:21:11.757Z,100044.34
2022-11-24T15:23:45.813Z,100047.63
2022-11-24T15:26:35.512Z,100031.97
2022-11-24T15:29:06.839Z,100027.53
2022-11-24T15:31:35.396Z,100038.09
2022-11-24T15:34:03.872Z,100045.28
2022-11-24T15:36:33.934Z,100047.22
2022-11-24T15:39:02.399Z,100043.91
2022-11-24T15:41:32.532Z,100055.44
2022-11-24T15:44:01.323Z,100050.25
2022-11-24T15:46:31.114Z,100055.97
2022-11-24T15:48:59.636Z,100043.97
2022-11-24T15:51:28.414Z,100065.78
2022-11-24T15:54:01.030Z,100074.00
2022-11-24T15:56:33.597Z,100064.81
2022-11-24T15:59:02.573Z,100063.91
2022-11-24T16:01:32.757Z,100051.38
2022-11-24T16:04:03.469Z,100065.06
2022-11-24T16:06:31.970Z,100075.31
2022-11-24T16:09:02.822Z,100075.53
2022-11-24T16:11:31.288Z,100055.38
2022-11-24T16:13:59.818Z,100078.31
2022-11-24T16:16:28.347Z,100086.13
2022-11-24T16:18:57.012Z,100070.56
2022-11-24T16:21:25.492Z,100091.53
2022-11-24T16:23:53.966Z,100084.38
2022-11-24T16:26:23.780Z,100095.38
2022-11-24T16:28:52.241Z,100100.06
2022-11-24T16:31:20.815Z,100089.09
2022-11-24T16:33:49.290Z,100090.88
2022-11-24T16:36:17.706Z,100107.81
2022-11-24T16:38:46.153Z,100119.66
2022-11-24T16:41:16.058Z,100144.84
2022-11-24T16:43:46.355Z,100159.19
2022-11-24T16:46:20.521Z,100173.06
2022-11-24T16:48:50.967Z,100195.44
2022-11-24T16:51:21.388Z,100198.34
2022-11-24T16:53:57.536Z,100204.72
2022-11-24T16:56:26.179Z,100199.47
2022-11-24T16:58:56.570Z,100203.63
2022-11-24T17:01:26.109Z,100201.81
2022-11-24T17:03:54.821Z,100187.25
2022-11-24T17:06:23.884Z,100180.16
2022-11-24T17:08:52.341Z,100151.03
2022-11-24T17:11:23.056Z,100200.28
2022-11-24T17:13:52.523Z,100180.59
2022-11-24T17:16:24.340Z,100193.34
2022-11-24T17:18:53.624Z,100188.34
2022-11-24T17:21:23.762Z,100195.28
2022-11-24T17:23:55.228Z,100208.25
2022-11-24T17:26:23.894Z,100216.34
2022-11-24T17:28:52.621Z,100214.91
2022-11-24T17:31:25.943Z,100227.13
2022-11-24T17:33:56.703Z,100218.75
2022-11-24T17:36:25.799Z,100223.34
2022-11-24T17:38:54.534Z,100239.81
2022-11-24T17:41:23.973Z,100249.50
2022-11-24T17:43:53.451Z,100265.03
2022-11-24T17:46:24.177Z,100280.03
2022-11-24T17:48:52.885Z,100280.25
2022-11-24T17:51:22.850Z,100285.28
2022-11-24T17:53:52.757Z,100293.56
2022-11-24T17:56:23.745Z,100286.59
2022-11-24T17:58:55.363Z,100303.13
2022-11-24T18:01:26.258Z,100302.25
2022-11-24T18:03:55.355Z,100311.63
2022-11-24T18:06:25.636Z,100316.88
2022-11-24T18:08:55.209Z,100326.72
2022-11-24T18:11:30.600Z,100345.00
2022-11-24T18:14:03.029Z,100341.81
2022-11-24T18:16:34.322Z,100357.53
2022-11-24T18:19:08.863Z,100377.81
2022-11-24T18:21:38.955Z,100389.03
2022-11-24T18:24:08.209Z,100395.16
2022-11-24T18:26:36.766Z,100412.63
2022-11-24T18:29:05.884Z,100415.13
2022-11-24T18:31:36.443Z,100423.00
2022-11-24T18:34:06.379Z,100420.28
2022-11-24T18:36:35.639Z,100390.75
2022-11-24T18:39:06.085Z,100398.88
2022-11-24T18:41:34.958Z,100407.47
2022-11-24T18:44:07.909Z,100412.75
2022-11-24T18:46:38.946Z,100409.06
2022-11-24T18:49:08.111Z,100413.50
2022-11-24T18:51:36.795Z,100423.50
2022-11-24T18:54:06.194Z,100424.72
2022-11-24T18:56:34.770Z,100427.09
2022-11-24T18:59:03.273Z,100430.97
2022-11-24T19:01:32.438Z,100433.59
2022-11-24T19:04:03.558Z,100433.88
2022-11-24T19:06:34.017Z,100439.13
2022-11-24T19:09:04.725Z,100436.53
2022-11-24T19:11:35.479Z,100425.44
2022-11-24T19:14:05.204Z,100425.75
2022-11-24T19:16:34.245Z,100448.72
2022-11-24T19:19:05.039Z,100452.53
2022-11-24T19:21:37.269Z,100459.94
2022-11-24T19:24:06.648Z,100458.75
2022-11-24T19:26:36.038Z,100469.28
2022-11-24T19:29:05.545Z,100460.19
2022-11-24T19:31:35.143Z,100462.22
2022-11-24T19:34:06.004Z,100464.28
2022-11-24T19:36:34.783Z,100485.66
2022-11-24T19:39:05.365Z,100488.66
2022-11-24T19:41:34.741Z,100482.44
2022-11-24T19:44:03.439Z,100487.69
2022-11-24T19:46:32.059Z,100482.56
2022-11-24T19:49:02.303Z,100480.53
2022-11-24T19:51:34.331Z,100490.81
2022-11-24T19:54:04.679Z,100499.41
2022-11-24T19:56:36.046Z,100502.16
2022-11-24T19:59:06.225Z,100506.56
2022-11-24T20:01:38.273Z,100481.50
2022-11-24T20:04:09.099Z,100495.34
2022-11-24T20:06:41.741Z,100498.94
2022-11-24T20:09:16.747Z,100515.53
2022-11-24T20:11:46.223Z,100530.25
2022-11-24T20:14:16.115Z,100530.72
2022-11-24T20:16:46.739Z,100531.44
2022-11-24T20:19:17.602Z,100518.06
2022-11-24T20:21:49.460Z,100530.94
2022-11-24T20:24:20.515Z,100541.94
2022-11-24T20:26:51.571Z,100558.44
2022-11-24T20:29:20.812Z,100556.75
2022-11-24T20:31:51.790Z,100569.69
2022-11-24T20:34:21.371Z,100581.63
2022-11-24T20:36:52.920Z,100573.28
2022-11-24T20:39:25.383Z,100592.56
2022-11-24T20:41:54.596Z,100599.25
2022-11-24T20:44:23.906Z,100594.59
2022-11-24T20:46:52.362Z,100606.69
2022-11-24T20:49:22.036Z,100606.94
2022-11-24T20:51:54.640Z,100604.19
2022-11-24T20:54:23.559Z,100593.78
2022-11-24T20:56:52.385Z,100614.25
2022-11-24T20:59:22.682Z,100620.47
2022-11-24T21:01:54.219Z,100608.97
2022-11-24T21:04:24.976Z,100590.19
2022-11-24T21:06:55.147Z,100605.03
2022-11-24T21:09:24.859Z,100618.91
2022-11-24T21:11:54.826Z,100623.31
2022-11-24T21:14:24.532Z,100616.88
2022-11-24T21:16:53.140Z,100629.28
2022-11-24T21:19:22.122Z,100625.25
2022-11-24T21:21:50.658Z,100628.81
2022-11-24T21:24:21.904Z,100583.34
2022-11-24T21:26:52.876Z,100598.44
2022-11-24T21:29:23.674Z,100601.56
2022-11-24T21:31:52.727Z,100577.41
2022-11-24T21:34:21.421Z,100588.63
2022-11-24T21:36:49.974Z,100538.88
2022-11-24T21:39:18.751Z,100555.47
2022-11-24T21:41:49.046Z,100555.38
2022-11-24T21:44:17.535Z,100551.88
2022-11-24T21:46:51.108Z,100538.72
2022-11-24T21:49:24.117Z,100550.94
2022-11-24T21:51:55.964Z,100553.94
2022-11-24T21:54:24.893Z,100548.22
2022-11-24T21:56:55.937Z,100557.66
2022-11-24T21:59:24.607Z,100569.22
2022-11-24T22:01:53.365Z,100570.66
2022-11-24T22:04:21.969Z,100556.09
2022-11-24T22:06:50.499Z,100560.28
2022-11-24T22:09:19.456Z,100529.53
2022-11-24T22:11:49.486Z,100578.47
2022-11-24T22:14:19.560Z,100585.88
2022-11-24T22:16:48.345Z,100596.53
2022-11-24T22:19:16.863Z,100602.28
2022-11-24T22:21:45.392Z,100603.34
2022-11-24T22:24:14.066Z,100605.59
2022-11-24T22:26:42.530Z,100615.31
2022-11-24T22:29:13.728Z,100567.91
2022-11-24T22:31:43.954Z,100627.75
2022-11-24T22:34:12.511Z,100624.88
2022-11-24T22:36:40.928Z,100621.34
2022-11-24T22:39:12.954Z,100633.31
2022-11-24T22:41:41.451Z,100619.66
2022-11-24T22:44:09.940Z,100623.94
2022-11-24T22:46:38.463Z,100635.16
2022-11-24T22:49:08.292Z,100636.81
2022-11-24T22:51:40.505Z,100651.13
2022-11-24T22:54:08.964Z,100667.34
2022-11-24T22:56:37.409Z,100668.72
2022-11-24T22:59:05.841Z,100672.06
2022-11-24T23:01:35.179Z,100683.44
2022-11-24T23:04:04.153Z,100674.00
2022-11-24T23:06:38.833Z,100683.81
2022-11-24T23:09:08.310Z,100673.16
2022-11-24T23:11:39.734Z,100676.38
2022-11-24T23:14:09.830Z,100685.28
2022-11-24T23:16:38.642Z,100683.72
2022-11-24T23:19:07.834Z,100689.47
2022-11-24T23:21:39.517Z,100679.78
2022-11-24T23:24:09.852Z,100665.78
2022-11-24T23:26:40.785Z,100669.41
2022-11-24T23:29:11.416Z,100646.16
2022-11-24T23:31:41.039Z,100624.41
2022-11-24T23:34:10.409Z,100683.28
2022-11-24T23:36:40.791Z,100686.03
2022-11-24T23:39:13.428Z,100667.25
2022-11-24T23:41:42.436Z,100672.97
2022-11-24T23:44:11.150Z,100653.94
2022-11-24T23:46:39.856Z,100671.78
2022-11-24T23:49:08.385Z,100676.97
2022-11-24T23:51:36.850Z,100674.91
2022-11-24T23:54:09.454Z,100661.03
2022-11-24T23:56:38.104Z,100673.97
2022-11-24T23:59:07.007Z,100675.41
